sensor_id;sensor_type;location;lat;lon;timestamp;pressure;altitude;pressure_sealevel;temperature;humidity
75609;BME280;64194;51.044;13.780;2022-12-05T00:00:15;100286.91;;;7.43;71.35
75609;BME280;64194;51.044;13.780;2022-12-05T00:04:17;100299.34;;;7.41;71.75
75609;BME280;64194;51.044;13.780;2022-12-05T00:08:19;100297.75;;;7.37;71.73
75609;BME280;64194;51.044;13.780;2022-12-05T00:12:21;100297.34;;;7.46;71.34
75609;BME280;64194;51.044;13.780;2022-12-05T00:16:27;100300.91;;;7.45;71.19
75609;BME280;64194;51.044;13.780;2022-12-05T00:20:29;100314.75;;;7.50;71.16
75609;BME280;64194;51.044;13.780;2022-12-05T00:24:30;100311.00;;;7.54;71.04
75609;BME280;64194;51.044;13.780;2022-12-05T00:28:32;100312.16;;;7.49;71.25
75609;BME280;64194;51.044;13.780;2022-12-05T00:32:34;100320.16;;;7.47;71.47
75609;BME280;64194;51.044;13.780;2022-12-05T00:36:36;100318.19;;;7.52;71.36
75609;BME280;64194;51.044;13.780;2022-12-05T00:40:38;100310.25;;;7.52;71.11
75609;BME280;64194;51.044;13.780;2022-12-05T00:44:39;100318.00;;;7.55;71.21
75609;BME280;64194;51.044;13.780;2022-12-05T00:48:41;100318.19;;;7.52;71.30
75609;BME280;64194;51.044;13.780;2022-12-05T00:52:43;100319.88;;;7.53;71.32
75609;BME280;64194;51.044;13.780;2022-12-05T00:56:45;100329.91;;;7.47;71.39
75609;BME280;64194;51.044;13.780;2022-12-05T01:00:46;100326.09;;;7.52;71.43
75609;BME280;64194;51.044;13.780;2022-12-05T01:04:48;100320.81;;;7.52;71.89
75609;BME280;64194;51.044;13.780;2022-12-05T01:08:52;100317.16;;;7.55;71.62
75609;BME280;64194;51.044;13.780;2022-12-05T01:12:54;100325.16;;;7.53;71.52
75609;BME280;64194;51.044;13.780;2022-12-05T01:16:56;100333.00;;;7.55;71.86
75609;BME280;64194;51.044;13.780;2022-12-05T01:20:57;100329.56;;;7.53;71.84
75609;BME280;64194;51.044;13.780;2022-12-05T01:24:59;100323.47;;;7.52;71.72
75609;BME280;64194;51.044;13.780;2022-12-05T01:29:01;100325.88;;;7.57;71.79
75609;BME280;64194;51.044;13.780;2022-12-05T01:33:06;100314.44;;;7.56;71.75
75609;BME280;64194;51.044;13.780;2022-12-05T01:37:07;100327.66;;;7.56;71.72
75609;BME280;64194;51.044;13.780;2022-12-05T01:41:16;100325.03;;;7.56;71.87
75609;BME280;64194;51.044;13.780;2022-12-05T01:49:36;100329.69;;;7.51;71.99
75609;BME280;64194;51.044;13.780;2022-12-05T01:53:43;100333.31;;;7.49;72.23
75609;BME280;64194;51.044;13.780;2022-12-05T01:57:46;100332.44;;;7.48;72.18
75609;BME280;64194;51.044;13.780;2022-12-05T02:01:49;100334.16;;;7.49;72.38
75609;BME280;64194;51.044;13.780;2022-12-05T02:05:53;100324.53;;;7.48;72.56
75609;BME280;64194;51.044;13.780;2022-12-05T02:09:57;100317.50;;;7.47;72.16
75609;BME280;64194;51.044;13.780;2022-12-05T02:18:37;100331.59;;;7.48;72.60
75609;BME280;64194;51.044;13.780;2022-12-05T02:32:42;100330.72;;;7.47;73.00
75609;BME280;64194;51.044;13.780;2022-12-05T02:36:48;100337.50;;;7.53;72.50
75609;BME280;64194;51.044;13.780;2022-12-05T02:41:03;100328.94;;;7.48;72.82
75609;BME280;64194;51.044;13.780;2022-12-05T02:45:11;100339.63;;;7.46;72.95
75609;BME280;64194;51.044;13.780;2022-12-05T02:49:19;100329.34;;;7.40;73.21
75609;BME280;64194;51.044;13.780;2022-12-05T02:53:23;100322.50;;;7.36;73.40
75609;BME280;64194;51.044;13.780;2022-12-05T02:57:26;100331.34;;;7.35;73.20
75609;BME280;64194;51.044;13.780;2022-12-05T03:01:30;100321.06;;;7.29;74.08
75609;BME280;64194;51.044;13.780;2022-12-05T03:05:50;100314.84;;;7.30;73.86
75609;BME280;64194;51.044;13.780;2022-12-05T03:09:59;100314.75;;;7.32;74.15
75609;BME280;64194;51.044;13.780;2022-12-05T03:14:05;100315.63;;;7.32;73.81
75609;BME280;64194;51.044;13.780;2022-12-05T03:18:36;100321.34;;;7.23;74.32
75609;BME280;64194;51.044;13.780;2022-12-05T03:22:44;100321.06;;;7.29;74.00
75609;BME280;64194;51.044;13.780;2022-12-05T03:27:10;100320.91;;;7.32;74.02
75609;BME280;64194;51.044;13.780;2022-12-05T03:31:23;100321.28;;;7.25;74.16
75609;BME280;64194;51.044;13.780;2022-12-05T03:35:35;100330.19;;;7.22;74.31
75609;BME280;64194;51.044;13.780;2022-12-05T03:39:41;100332.78;;;7.24;74.32
75609;BME280;64194;51.044;13.780;2022-12-05T03:44:00;100331.91;;;7.23;74.06
75609;BME280;64194;51.044;13.780;2022-12-05T03:48:07;100338.91;;;7.24;74.12
75609;BME280;64194;51.044;13.780;2022-12-05T03:52:26;100337.84;;;7.28;73.96
75609;BME280;64194;51.044;13.780;2022-12-05T03:56:35;100338.91;;;7.24;73.71
75609;BME280;64194;51.044;13.780;2022-12-05T04:00:41;100331.75;;;7.26;74.17
75609;BME280;64194;51.044;13.780;2022-12-05T04:04:54;100342.47;;;7.23;73.77
75609;BME280;64194;51.044;13.780;2022-12-05T04:09:07;100342.31;;;7.26;73.49
75609;BME280;64194;51.044;13.780;2022-12-05T04:13:22;100342.31;;;7.26;73.39
75609;BME280;64194;51.044;13.780;2022-12-05T04:17:32;100337.13;;;7.25;73.48
75609;BME280;64194;51.044;13.780;2022-12-05T04:21:40;100347.88;;;7.20;73.44
75609;BME280;64194;51.044;13.780;2022-12-05T04:30:09;100347.59;;;7.26;73.10
75609;BME280;64194;51.044;13.780;2022-12-05T04:34:16;100345.91;;;7.25;73.42
75609;BME280;64194;51.044;13.780;2022-12-05T04:38:31;100351.91;;;7.29;72.83
75609;BME280;64194;51.044;13.780;2022-12-05T04:42:35;100339.56;;;7.29;73.18
75609;BME280;64194;51.044;13.780;2022-12-05T04:46:39;100347.47;;;7.29;73.17
75609;BME280;64194;51.044;13.780;2022-12-05T04:50:44;100353.75;;;7.27;73.19
75609;BME280;64194;51.044;13.780;2022-12-05T04:55:08;100353.03;;;7.23;73.39
75609;BME280;64194;51.044;13.780;2022-12-05T04:59:12;100360.75;;;7.28;73.14
75609;BME280;64194;51.044;13.780;2022-12-05T05:03:24;100366.81;;;7.30;73.02
75609;BME280;64194;51.044;13.780;2022-12-05T05:07:27;100369.75;;;7.24;73.20
75609;BME280;64194;51.044;13.780;2022-12-05T05:11:31;100363.44;;;7.26;73.09
75609;BME280;64194;51.044;13.780;2022-12-05T05:15:33;100365.34;;;7.24;73.49
75609;BME280;64194;51.044;13.780;2022-12-05T05:19:35;100364.25;;;7.28;73.03
75609;BME280;64194;51.044;13.780;2022-12-05T05:23:37;100371.94;;;7.33;72.94
75609;BME280;64194;51.044;13.780;2022-12-05T05:27:38;100371.38;;;7.26;73.31
75609;BME280;64194;51.044;13.780;2022-12-05T05:31:40;100370.63;;;7.24;73.59
75609;BME280;64194;51.044;13.780;2022-12-05T05:35:42;100370.69;;;7.23;73.56
75609;BME280;64194;51.044;13.780;2022-12-05T05:39:43;100376.88;;;7.22;73.62
75609;BME280;64194;51.044;13.780;2022-12-05T05:43:45;100384.03;;;7.20;73.72
75609;BME280;64194;51.044;13.780;2022-12-05T05:47:48;100383.88;;;7.23;73.32
75609;BME280;64194;51.044;13.780;2022-12-05T05:51:50;100385.66;;;7.22;73.48
75609;BME280;64194;51.044;13.780;2022-12-05T05:55:51;100382.81;;;7.27;73.32
75609;BME280;64194;51.044;13.780;2022-12-05T05:59:53;100389.00;;;7.26;73.51
75609;BME280;64194;51.044;13.780;2022-12-05T06:03:55;100390.81;;;7.25;73.29
75609;BME280;64194;51.044;13.780;2022-12-05T06:07:57;100390.03;;;7.23;73.47
75609;BME280;64194;51.044;13.780;2022-12-05T06:11:59;100391.75;;;7.24;73.97
75609;BME280;64194;51.044;13.780;2022-12-05T06:16:04;100396.59;;;7.33;72.93
75609;BME280;64194;51.044;13.780;2022-12-05T06:20:06;100398.59;;;7.28;73.35
75609;BME280;64194;51.044;13.780;2022-12-05T06:24:09;100393.25;;;7.30;72.99
75609;BME280;64194;51.044;13.780;2022-12-05T06:28:10;100416.16;;;7.29;73.24
75609;BME280;64194;51.044;13.780;2022-12-05T06:32:12;100418.00;;;7.27;73.12
75609;BME280;64194;51.044;13.780;2022-12-05T06:36:16;100425.81;;;7.30;72.74
75609;BME280;64194;51.044;13.780;2022-12-05T06:40:18;100433.00;;;7.27;72.84
75609;BME280;64194;51.044;13.780;2022-12-05T06:44:48;100441.78;;;7.27;72.78
75609;BME280;64194;51.044;13.780;2022-12-05T06:48:55;100455.00;;;7.27;72.77
75609;BME280;64194;51.044;13.780;2022-12-05T06:52:58;100458.66;;;7.25;72.85
75609;BME280;64194;51.044;13.780;2022-12-05T06:56:59;100456.88;;;7.25;72.73
75609;BME280;64194;51.044;13.780;2022-12-05T07:01:01;100461.78;;;7.33;72.49
75609;BME280;64194;51.044;13.780;2022-12-05T07:05:22;100462.84;;;7.29;72.62
75609;BME280;64194;51.044;13.780;2022-12-05T07:09:27;100465.16;;;7.36;72.18
75609;BME280;64194;51.044;13.780;2022-12-05T07:14:14;100454.28;;;7.42;71.95
75609;BME280;64194;51.044;13.780;2022-12-05T07:18:36;100462.53;;;7.36;72.68
75609;BME280;64194;51.044;13.780;2022-12-05T07:22:38;100464.00;;;7.42;72.48
75609;BME280;64194;51.044;13.780;2022-12-05T07:26:39;100461.94;;;7.48;72.08
75609;BME280;64194;51.044;13.780;2022-12-05T07:30:47;100453.41;;;7.42;72.33
75609;BME280;64194;51.044;13.780;2022-12-05T07:34:49;100462.38;;;7.39;72.39
75609;BME280;64194;51.044;13.780;2022-12-05T07:38:57;100455.28;;;7.40;72.64
75609;BME280;64194;51.044;13.780;2022-12-05T07:42:59;100470.06;;;7.44;72.45
75609;BME280;64194;51.044;13.780;2022-12-05T07:47:01;100482.16;;;7.49;72.06
75609;BME280;64194;51.044;13.780;2022-12-05T07:51:03;100480.31;;;7.51;72.37
75609;BME280;64194;51.044;13.780;2022-12-05T07:55:07;100473.03;;;7.56;71.99
75609;BME280;64194;51.044;13.780;2022-12-05T07:59:09;100476.38;;;7.60;71.94
75609;BME280;64194;51.044;13.780;2022-12-05T08:03:10;100482.16;;;7.68;71.97
75609;BME280;64194;51.044;13.780;2022-12-05T08:07:12;100498.09;;;7.67;71.87
75609;BME280;64194;51.044;13.780;2022-12-05T08:11:29;100506.03;;;7.67;71.89
75609;BME280;64194;51.044;13.780;2022-12-05T08:15:33;100493.72;;;7.66;71.51
75609;BME280;64194;51.044;13.780;2022-12-05T08:19:35;100492.59;;;7.71;71.46
75609;BME280;64194;51.044;13.780;2022-12-05T08:23:37;100487.31;;;7.71;71.30
75609;BME280;64194;51.044;13.780;2022-12-05T08:27:40;100505.75;;;7.73;71.82
75609;BME280;64194;51.044;13.780;2022-12-05T08:31:44;100503.09;;;7.73;71.29
75609;BME280;64194;51.044;13.780;2022-12-05T08:35:49;100516.97;;;7.78;71.56
75609;BME280;64194;51.044;13.780;2022-12-05T08:39:51;100511.38;;;7.84;71.18
75609;BME280;64194;51.044;13.780;2022-12-05T08:43:54;100509.75;;;8.00;70.85
75609;BME280;64194;51.044;13.780;2022-12-05T08:48:33;100506.56;;;8.11;70.31
75609;BME280;64194;51.044;13.780;2022-12-05T08:52:35;100505.94;;;8.06;70.48
75609;BME280;64194;51.044;13.780;2022-12-05T08:56:42;100510.44;;;8.04;70.65
75609;BME280;64194;51.044;13.780;2022-12-05T09:00:43;100512.44;;;8.17;69.76
75609;BME280;64194;51.044;13.780;2022-12-05T09:05:20;100525.28;;;8.25;70.05
75609;BME280;64194;51.044;13.780;2022-12-05T09:10:04;100525.75;;;8.34;69.33
75609;BME280;64194;51.044;13.780;2022-12-05T09:14:09;100526.50;;;8.36;68.95
75609;BME280;64194;51.044;13.780;2022-12-05T09:18:10;100536.81;;;8.43;68.77
75609;BME280;64194;51.044;13.780;2022-12-05T09:28:07;100547.63;;;8.38;68.76
75609;BME280;64194;51.044;13.780;2022-12-05T09:38:36;100549.41;;;8.37;68.79
75609;BME280;64194;51.044;13.780;2022-12-05T09:48:51;100553.41;;;8.63;68.02
75609;BME280;64194;51.044;13.780;2022-12-05T09:57:57;100553.34;;;8.65;67.52
75609;BME280;64194;51.044;13.780;2022-12-05T10:02:12;100551.97;;;8.75;67.75
75609;BME280;64194;51.044;13.780;2022-12-05T10:06:29;100567.91;;;8.73;67.31
75609;BME280;64194;51.044;13.780;2022-12-05T10:15:16;100567.81;;;8.58;68.28
75609;BME280;64194;51.044;13.780;2022-12-05T10:19:47;100562.38;;;8.61;68.27
75609;BME280;64194;51.044;13.780;2022-12-05T10:24:11;100564.31;;;8.57;68.11
75609;BME280;64194;51.044;13.780;2022-12-05T10:28:26;100572.34;;;8.56;68.42
75609;BME280;64194;51.044;13.780;2022-12-05T10:32:34;100560.47;;;8.46;68.49
75609;BME280;64194;51.044;13.780;2022-12-05T10:36:54;100555.50;;;8.57;68.44
75609;BME280;64194;51.044;13.780;2022-12-05T10:40:58;100559.25;;;8.53;67.59
75609;BME280;64194;51.044;13.780;2022-12-05T10:45:12;100549.88;;;8.46;67.56
75609;BME280;64194;51.044;13.780;2022-12-05T10:49:36;100547.63;;;8.38;67.19
75609;BME280;64194;51.044;13.780;2022-12-05T10:53:47;100552.47;;;8.10;67.81
75609;BME280;64194;51.044;13.780;2022-12-05T11:02:44;100558.72;;;7.90;68.90
75609;BME280;64194;51.044;13.780;2022-12-05T11:11:04;100554.63;;;8.02;68.39
75609;BME280;64194;51.044;13.780;2022-12-05T11:19:42;100555.09;;;7.91;68.53
75609;BME280;64194;51.044;13.780;2022-12-05T11:23:46;100557.31;;;7.81;68.55
75609;BME280;64194;51.044;13.780;2022-12-05T11:27:48;100545.88;;;7.81;68.93
75609;BME280;64194;51.044;13.780;2022-12-05T11:32:24;100544.19;;;7.80;68.97
75609;BME280;64194;51.044;13.780;2022-12-05T11:36:38;100544.91;;;7.83;68.58
75609;BME280;64194;51.044;13.780;2022-12-05T11:54:46;100545.41;;;8.10;68.28
75609;BME280;64194;51.044;13.780;2022-12-05T12:12:04;100541.75;;;8.31;69.90
75609;BME280;64194;51.044;13.780;2022-12-05T12:21:27;100542.31;;;8.19;70.49
75609;BME280;64194;51.044;13.780;2022-12-05T12:30:47;100521.31;;;8.16;70.15
75609;BME280;64194;51.044;13.780;2022-12-05T12:43:38;100521.88;;;8.23;68.02
75609;BME280;64194;51.044;13.780;2022-12-05T12:52:11;100514.75;;;8.06;67.98
75609;BME280;64194;51.044;13.780;2022-12-05T12:56:51;100507.28;;;8.14;67.19
75609;BME280;64194;51.044;13.780;2022-12-05T13:05:55;100517.84;;;8.14;66.91
75609;BME280;64194;51.044;13.780;2022-12-05T13:10:46;100512.06;;;8.25;66.33
75609;BME280;64194;51.044;13.780;2022-12-05T13:19:53;100523.78;;;8.19;66.41
75609;BME280;64194;51.044;13.780;2022-12-05T13:24:19;100523.16;;;8.14;67.51
75609;BME280;64194;51.044;13.780;2022-12-05T13:28:29;100523.31;;;8.11;67.62
75609;BME280;64194;51.044;13.780;2022-12-05T13:32:38;100520.16;;;8.03;67.98
75609;BME280;64194;51.044;13.780;2022-12-05T13:42:44;100537.91;;;8.01;68.54
75609;BME280;64194;51.044;13.780;2022-12-05T13:46:48;100536.31;;;7.97;68.91
75609;BME280;64194;51.044;13.780;2022-12-05T13:51:11;100541.06;;;7.90;68.67
75609;BME280;64194;51.044;13.780;2022-12-05T14:04:55;100541.47;;;8.00;68.04
75609;BME280;64194;51.044;13.780;2022-12-05T14:17:41;100538.38;;;8.09;67.85
75609;BME280;64194;51.044;13.780;2022-12-05T14:26:37;100537.25;;;7.96;68.32
75609;BME280;64194;51.044;13.780;2022-12-05T14:35:50;100530.59;;;7.87;68.96
75609;BME280;64194;51.044;13.780;2022-12-05T14:40:31;100549.06;;;7.89;68.79
75609;BME280;64194;51.044;13.780;2022-12-05T14:44:55;100542.84;;;7.90;68.85
75609;BME280;64194;51.044;13.780;2022-12-05T14:54:15;100547.50;;;7.85;69.09
75609;BME280;64194;51.044;13.780;2022-12-05T14:58:42;100551.44;;;7.75;69.19
75609;BME280;64194;51.044;13.780;2022-12-05T15:02:50;100548.34;;;7.85;69.08
75609;BME280;64194;51.044;13.780;2022-12-05T15:07:30;100554.34;;;7.89;68.67
75609;BME280;64194;51.044;13.780;2022-12-05T15:11:39;100550.75;;;7.71;69.91
75609;BME280;64194;51.044;13.780;2022-12-05T15:16:16;100553.16;;;7.57;70.48
75609;BME280;64194;51.044;13.780;2022-12-05T15:20:32;100561.00;;;7.58;70.70
75609;BME280;64194;51.044;13.780;2022-12-05T15:24:42;100561.16;;;7.55;71.15
75609;BME280;64194;51.044;13.780;2022-12-05T15:33:26;100559.69;;;7.69;70.41
75609;BME280;64194;51.044;13.780;2022-12-05T15:42:20;100553.75;;;7.64;69.88
75609;BME280;64194;51.044;13.780;2022-12-05T15:47:22;100566.88;;;7.65;70.05
75609;BME280;64194;51.044;13.780;2022-12-05T15:51:37;100564.44;;;7.61;70.33
75609;BME280;64194;51.044;13.780;2022-12-05T15:55:54;100566.22;;;7.60;70.06
75609;BME280;64194;51.044;13.780;2022-12-05T16:00:29;100578.53;;;7.61;70.32
75609;BME280;64194;51.044;13.780;2022-12-05T16:05:01;100572.31;;;7.62;70.34
75609;BME280;64194;51.044;13.780;2022-12-05T16:09:21;100581.22;;;7.60;69.81
75609;BME280;64194;51.044;13.780;2022-12-05T16:13:28;100587.31;;;7.62;69.78
75609;BME280;64194;51.044;13.780;2022-12-05T16:17:45;100594.22;;;7.64;69.65
75609;BME280;64194;51.044;13.780;2022-12-05T16:22:06;100584.78;;;7.58;69.88
75609;BME280;64194;51.044;13.780;2022-12-05T16:26:19;100592.72;;;7.58;69.68
75609;BME280;64194;51.044;13.780;2022-12-05T16:30:30;100587.91;;;7.48;69.85
75609;BME280;64194;51.044;13.780;2022-12-05T16:34:34;100586.00;;;7.51;69.85
75609;BME280;64194;51.044;13.780;2022-12-05T16:43:56;100592.16;;;7.52;69.52
75609;BME280;64194;51.044;13.780;2022-12-05T16:48:29;100604.72;;;7.47;69.45
75609;BME280;64194;51.044;13.780;2022-12-05T16:58:37;100594.78;;;7.32;70.02
75609;BME280;64194;51.044;13.780;2022-12-05T17:03:01;100600.22;;;7.29;70.39
75609;BME280;64194;51.044;13.780;2022-12-05T17:07:49;100592.94;;;7.34;70.04
75609;BME280;64194;51.044;13.780;2022-12-05T17:12:30;100595.81;;;7.29;70.19
75609;BME280;64194;51.044;13.780;2022-12-05T17:26:23;100603.53;;;7.34;70.27
75609;BME280;64194;51.044;13.780;2022-12-05T17:30:24;100601.59;;;7.37;70.46
75609;BME280;64194;51.044;13.780;2022-12-05T17:39:43;100596.84;;;7.45;70.00
75609;BME280;64194;51.044;13.780;2022-12-05T17:44:12;100601.13;;;7.48;69.69
75609;BME280;64194;51.044;13.780;2022-12-05T17:48:24;100598.47;;;7.48;69.64
75609;BME280;64194;51.044;13.780;2022-12-05T17:52:53;100600.25;;;7.47;69.83
75609;BME280;64194;51.044;13.780;2022-12-05T17:57:22;100604.72;;;7.47;69.75
75609;BME280;64194;51.044;13.780;2022-12-05T18:01:26;100607.53;;;7.42;69.83
75609;BME280;64194;51.044;13.780;2022-12-05T18:10:48;100610.53;;;7.35;71.74
75609;BME280;64194;51.044;13.780;2022-12-05T18:14:52;100617.19;;;7.23;72.39
75609;BME280;64194;51.044;13.780;2022-12-05T18:18:59;100622.97;;;7.11;72.37
75609;BME280;64194;51.044;13.780;2022-12-05T18:29:19;100610.53;;;6.93;74.40
75609;BME280;64194;51.044;13.780;2022-12-05T18:33:47;100608.72;;;6.95;74.83
75609;BME280;64194;51.044;13.780;2022-12-05T18:38:50;100627.09;;;6.98;74.60
75609;BME280;64194;51.044;13.780;2022-12-05T18:43:05;100624.88;;;6.87;75.39
75609;BME280;64194;51.044;13.780;2022-12-05T18:47:27;100629.16;;;6.90;76.31
75609;BME280;64194;51.044;13.780;2022-12-05T18:51:49;100644.13;;;6.89;75.88
75609;BME280;64194;51.044;13.780;2022-12-05T18:56:42;100646.72;;;6.91;75.89
75609;BME280;64194;51.044;13.780;2022-12-05T19:01:13;100640.09;;;6.81;75.75
75609;BME280;64194;51.044;13.780;2022-12-05T19:05:30;100650.22;;;6.69;75.69
75609;BME280;64194;51.044;13.780;2022-12-05T19:09:55;100651.78;;;6.75;75.96
75609;BME280;64194;51.044;13.780;2022-12-05T19:14:18;100646.97;;;6.85;75.73
75609;BME280;64194;51.044;13.780;2022-12-05T19:18:29;100647.69;;;6.88;75.75
75609;BME280;64194;51.044;13.780;2022-12-05T19:22:31;100640.72;;;6.87;75.34
75609;BME280;64194;51.044;13.780;2022-12-05T19:26:35;100646.09;;;6.84;75.08
75609;BME280;64194;51.044;13.780;2022-12-05T19:30:37;100636.41;;;6.85;75.62
75609;BME280;64194;51.044;13.780;2022-12-05T19:34:41;100635.59;;;6.83;75.67
75609;BME280;64194;51.044;13.780;2022-12-05T19:39:07;100640.09;;;6.81;75.22
75609;BME280;64194;51.044;13.780;2022-12-05T19:43:12;100642.59;;;6.84;75.15
75609;BME280;64194;51.044;13.780;2022-12-05T19:47:37;100628.34;;;6.88;75.72
75609;BME280;64194;51.044;13.780;2022-12-05T19:51:41;100631.00;;;6.88;75.28
75609;BME280;64194;51.044;13.780;2022-12-05T19:55:46;100629.56;;;6.81;75.00
75609;BME280;64194;51.044;13.780;2022-12-05T19:59:57;100633.22;;;6.77;75.14
75609;BME280;64194;51.044;13.780;2022-12-05T20:04:26;100627.00;;;6.78;75.24
75609;BME280;64194;51.044;13.780;2022-12-05T20:08:49;100631.38;;;6.79;76.53
75609;BME280;64194;51.044;13.780;2022-12-05T20:13:10;100628.53;;;6.83;75.99
75609;BME280;64194;51.044;13.780;2022-12-05T20:17:32;100637.88;;;6.92;76.06
75609;BME280;64194;51.044;13.780;2022-12-05T20:21:35;100643.66;;;7.01;75.88
75609;BME280;64194;51.044;13.780;2022-12-05T20:26:09;100648.22;;;6.98;75.92
75609;BME280;64194;51.044;13.780;2022-12-05T20:30:47;100640.16;;;7.01;76.70
75609;BME280;64194;51.044;13.780;2022-12-05T20:34:52;100634.91;;;6.99;76.49
75609;BME280;64194;51.044;13.780;2022-12-05T20:39:15;100625.47;;;6.94;76.36
75609;BME280;64194;51.044;13.780;2022-12-05T20:43:17;100625.28;;;6.77;76.63
75609;BME280;64194;51.044;13.780;2022-12-05T20:47:24;100625.63;;;6.69;76.79
75609;BME280;64194;51.044;13.780;2022-12-05T20:51:31;100629.38;;;6.63;76.85
75609;BME280;64194;51.044;13.780;2022-12-05T20:55:36;100612.63;;;6.64;77.45
75609;BME280;64194;51.044;13.780;2022-12-05T20:59:42;100623.50;;;6.55;77.68
75609;BME280;64194;51.044;13.780;2022-12-05T21:04:04;100616.66;;;6.51;77.91
75609;BME280;64194;51.044;13.780;2022-12-05T21:08:06;100615.59;;;6.55;77.66
75609;BME280;64194;51.044;13.780;2022-12-05T21:12:11;100608.44;;;6.59;77.06
75609;BME280;64194;51.044;13.780;2022-12-05T21:16:16;100620.44;;;6.66;76.81
75609;BME280;64194;51.044;13.780;2022-12-05T21:20:59;100618.91;;;6.60;76.84
75609;BME280;64194;51.044;13.780;2022-12-05T21:25:26;100616.22;;;6.62;76.95
75609;BME280;64194;51.044;13.780;2022-12-05T21:29:39;100618.47;;;6.49;76.34
75609;BME280;64194;51.044;13.780;2022-12-05T21:33:45;100614.19;;;6.47;74.88
75609;BME280;64194;51.044;13.780;2022-12-05T21:37:56;100618.97;;;6.37;72.94
75609;BME280;64194;51.044;13.780;2022-12-05T21:42:08;100615.47;;;6.37;72.08
75609;BME280;64194;51.044;13.780;2022-12-05T21:46:15;100619.22;;;6.31;72.84
75609;BME280;64194;51.044;13.780;2022-12-05T21:50:17;100606.25;;;6.25;73.28
75609;BME280;64194;51.044;13.780;2022-12-05T21:54:26;100601.66;;;6.30;73.52
75609;BME280;64194;51.044;13.780;2022-12-05T21:58:33;100608.78;;;6.28;73.07
75609;BME280;64194;51.044;13.780;2022-12-05T22:02:58;100600.06;;;6.26;73.09
75609;BME280;64194;51.044;13.780;2022-12-05T22:07:00;100593.75;;;6.30;73.00
75609;BME280;64194;51.044;13.780;2022-12-05T22:11:30;100607.84;;;6.29;72.42
75609;BME280;64194;51.044;13.780;2022-12-05T22:15:32;100607.06;;;6.27;72.66
75609;BME280;64194;51.044;13.780;2022-12-05T22:19:46;100610.69;;;6.24;72.59
75609;BME280;64194;51.044;13.780;2022-12-05T22:24:29;100614.63;;;6.13;72.54
75609;BME280;64194;51.044;13.780;2022-12-05T22:29:36;100602.59;;;6.06;72.95
75609;BME280;64194;51.044;13.780;2022-12-05T23:04:47;100562.34;;;6.46;72.23
75609;BME280;64194;51.044;13.780;2022-12-05T23:08:50;100559.22;;;6.36;71.95
75609;BME280;64194;51.044;13.780;2022-12-05T23:12:53;100567.94;;;6.38;72.58
75609;BME280;64194;51.044;13.780;2022-12-05T23:16:55;100560.19;;;6.34;72.51
75609;BME280;64194;51.044;13.780;2022-12-05T23:26:57;100544.59;;;6.27;72.45
75609;BME280;64194;51.044;13.780;2022-12-05T23:31:33;100537.22;;;6.15;72.71
75609;BME280;64194;51.044;13.780;2022-12-05T23:40:27;100524.03;;;6.15;73.12
75609;BME280;64194;51.044;13.780;2022-12-05T23:44:29;100523.69;;;6.23;73.20
75609;BME280;64194;51.044;13.780;2022-12-05T23:48:31;100521.88;;;6.25;73.68
75609;BME280;64194;51.044;13.780;2022-12-05T23:52:35;100532.28;;;6.28;73.32
75609;BME280;64194;51.044;13.780;2022-12-05T23:56:37;100530.31;;;6.33;72.91
